sensor_id;sensor_type;location;lat;lon;timestamp;pressure;altitude;pressure_sealevel;temperature;humidity
64025;BME280;50266;57.446;26.936;2022-12-18T00:00:08;100463.33;;;-10.08;100.0
64025;BME280;50266;57.446;26.936;2022-12-18T00:01:21;100462.64;;;-10.08;100.0
64025;BME280;50266;57.446;26.936;2022-12-18T00:02:13;100465.22;;;-10.13;100.0
64025;BME280;50266;57.446;26.936;2022-12-18T00:03:13;100465.79;;;-10.09;100.0
64025;BME280;50266;57.446;26.936;2022-12-18T00:04:20;100462.47;;;-10.12;100.0
64025;BME280;50266;57.446;26.936;2022-12-18T00:05:17;100467.83;;;-10.1;100.0
64025;BME280;50266;57.446;26.936;2022-12-18T00:06:18;100466.52;;;-10.11;100.0
64025;BME280;50266;57.446;26.936;2022-12-18T00:07:17;100466.53;;;-10.06;100.0
64025;BME280;50266;57.446;26.936;2022-12-18T00:08:18;100467.0;;;-10.09;100.0
64025;BME280;50266;57.446;26.936;2022-12-18T00:09:17;100464.64;;;-10.09;100.0
64025;BME280;50266;57.446;26.936;2022-12-18T00:10:17;100465.34;;;-10.09;100.0
64025;BME280;50266;57.446;26.936;2022-12-18T00:11:18;100469.53;;;-10.07;100.0
64025;BME280;50266;57.446;26.936;2022-12-18T00:12:17;100469.48;;;-10.07;100.0
64025;BME280;50266;57.446;26.936;2022-12-18T00:13:17;100468.69;;;-10.05;100.0
64025;BME280;50266;57.446;26.936;2022-12-18T00:14:17;100466.94;;;-10.08;100.0
64025;BME280;50266;57.446;26.936;2022-12-18T00:15:17;100467.8;;;-10.11;100.0
64025;BME280;50266;57.446;26.936;2022-12-18T00:16:19;100465.88;;;-10.17;100.0
64025;BME280;50266;57.446;26.936;2022-12-18T00:17:17;100468.46;;;-10.2;100.0
64025;BME280;50266;57.446;26.936;2022-12-18T00:18:17;100465.75;;;-10.2;100.0
64025;BME280;50266;57.446;26.936;2022-12-18T00:19:17;100470.38;;;-10.22;100.0
64025;BME280;50266;57.446;26.936;2022-12-18T00:20:17;100470.2;;;-10.19;100.0
64025;BME280;50266;57.446;26.936;2022-12-18T00:21:18;100471.82;;;-10.18;100.0
64025;BME280;50266;57.446;26.936;2022-12-18T00:22:17;100475.3;;;-10.19;100.0
64025;BME280;50266;57.446;26.936;2022-12-18T00:23:17;100470.33;;;-10.19;100.0
64025;BME280;50266;57.446;26.936;2022-12-18T00:24:18;100469.17;;;-10.26;100.0
64025;BME280;50266;57.446;26.936;2022-12-18T00:25:18;100470.09;;;-10.26;100.0
64025;BME280;50266;57.446;26.936;2022-12-18T00:26:25;100468.25;;;-10.28;100.0
64025;BME280;50266;57.446;26.936;2022-12-18T00:27:21;100462.75;;;-10.26;100.0
64025;BME280;50266;57.446;26.936;2022-12-18T00:28:21;100463.67;;;-10.26;100.0
64025;BME280;50266;57.446;26.936;2022-12-18T00:29:21;100463.64;;;-10.2;100.0
64025;BME280;50266;57.446;26.936;2022-12-18T00:30:21;100463.05;;;-10.21;100.0
64025;BME280;50266;57.446;26.936;2022-12-18T00:31:22;100463.83;;;-10.26;100.0
64025;BME280;50266;57.446;26.936;2022-12-18T00:32:21;100465.58;;;-10.3;100.0
64025;BME280;50266;57.446;26.936;2022-12-18T00:33:21;100469.11;;;-10.31;100.0
64025;BME280;50266;57.446;26.936;2022-12-18T00:34:21;100471.55;;;-10.35;100.0
64025;BME280;50266;57.446;26.936;2022-12-18T00:35:21;100472.26;;;-10.39;100.0
64025;BME280;50266;57.446;26.936;2022-12-18T00:36:22;100471.55;;;-10.39;100.0
64025;BME280;50266;57.446;26.936;2022-12-18T00:37:21;100470.72;;;-10.38;100.0
64025;BME280;50266;57.446;26.936;2022-12-18T00:38:21;100470.08;;;-10.38;100.0
64025;BME280;50266;57.446;26.936;2022-12-18T00:39:21;100479.22;;;-10.42;100.0
64025;BME280;50266;57.446;26.936;2022-12-18T00:40:21;100475.73;;;-10.38;100.0
64025;BME280;50266;57.446;26.936;2022-12-18T00:41:21;100481.57;;;-10.36;100.0
64025;BME280;50266;57.446;26.936;2022-12-18T00:42:21;100479.8;;;-10.39;100.0
64025;BME280;50266;57.446;26.936;2022-12-18T00:43:21;100477.39;;;-10.41;100.0
64025;BME280;50266;57.446;26.936;2022-12-18T00:44:21;100485.48;;;-10.4;100.0
64025;BME280;50266;57.446;26.936;2022-12-18T00:45:25;100488.52;;;-10.39;100.0
64025;BME280;50266;57.446;26.936;2022-12-18T00:46:22;100487.42;;;-10.38;100.0
64025;BME280;50266;57.446;26.936;2022-12-18T00:47:22;100487.16;;;-10.42;100.0
64025;BME280;50266;57.446;26.936;2022-12-18T00:48:22;100482.63;;;-10.35;100.0
64025;BME280;50266;57.446;26.936;2022-12-18T00:49:22;100485.02;;;-10.36;100.0
64025;BME280;50266;57.446;26.936;2022-12-18T00:50:22;100492.08;;;-10.36;100.0
64025;BME280;50266;57.446;26.936;2022-12-18T00:51:22;100494.01;;;-10.36;100.0
64025;BME280;50266;57.446;26.936;2022-12-18T00:52:22;100489.35;;;-10.38;100.0
64025;BME280;50266;57.446;26.936;2022-12-18T00:53:22;100489.45;;;-10.35;100.0
64025;BME280;50266;57.446;26.936;2022-12-18T00:54:22;100492.69;;;-10.34;100.0
64025;BME280;50266;57.446;26.936;2022-12-18T00:55:22;100488.4;;;-10.34;100.0
64025;BME280;50266;57.446;26.936;2022-12-18T00:56:22;100491.87;;;-10.4;100.0
64025;BME280;50266;57.446;26.936;2022-12-18T00:57:22;100493.47;;;-10.42;100.0
64025;BME280;50266;57.446;26.936;2022-12-18T00:58:22;100491.09;;;-10.46;100.0
64025;BME280;50266;57.446;26.936;2022-12-18T00:59:22;100486.95;;;-10.46;100.0
64025;BME280;50266;57.446;26.936;2022-12-18T01:00:22;100480.3;;;-10.46;100.0
64025;BME280;50266;57.446;26.936;2022-12-18T01:01:22;100478.8;;;-10.48;100.0
64025;BME280;50266;57.446;26.936;2022-12-18T01:02:22;100479.89;;;-10.48;100.0
64025;BME280;50266;57.446;26.936;2022-12-18T01:03:22;100482.97;;;-10.51;100.0
64025;BME280;50266;57.446;26.936;2022-12-18T01:04:22;100481.41;;;-10.47;100.0
64025;BME280;50266;57.446;26.936;2022-12-18T01:05:22;100482.84;;;-10.52;100.0
64025;BME280;50266;57.446;26.936;2022-12-18T01:06:22;100486.14;;;-10.54;100.0
64025;BME280;50266;57.446;26.936;2022-12-18T01:07:22;100484.33;;;-10.58;100.0
64025;BME280;50266;57.446;26.936;2022-12-18T01:08:22;100482.39;;;-10.57;100.0
64025;BME280;50266;57.446;26.936;2022-12-18T01:09:22;100481.83;;;-10.62;100.0
64025;BME280;50266;57.446;26.936;2022-12-18T01:10:23;100483.42;;;-10.64;100.0
64025;BME280;50266;57.446;26.936;2022-12-18T01:11:22;100487.06;;;-10.64;100.0
64025;BME280;50266;57.446;26.936;2022-12-18T01:12:22;100483.52;;;-10.63;100.0
64025;BME280;50266;57.446;26.936;2022-12-18T01:13:22;100479.86;;;-10.65;100.0
64025;BME280;50266;57.446;26.936;2022-12-18T01:14:22;100480.19;;;-10.65;100.0
64025;BME280;50266;57.446;26.936;2022-12-18T01:15:22;100480.2;;;-10.7;100.0
64025;BME280;50266;57.446;26.936;2022-12-18T01:16:22;100484.07;;;-10.71;100.0
64025;BME280;50266;57.446;26.936;2022-12-18T01:17:22;100482.22;;;-10.69;100.0
64025;BME280;50266;57.446;26.936;2022-12-18T01:18:22;100483.9;;;-10.73;100.0
64025;BME280;50266;57.446;26.936;2022-12-18T01:19:22;100486.54;;;-10.72;100.0
64025;BME280;50266;57.446;26.936;2022-12-18T01:20:22;100489.5;;;-10.72;100.0
64025;BME280;50266;57.446;26.936;2022-12-18T01:21:22;100491.39;;;-10.7;100.0
64025;BME280;50266;57.446;26.936;2022-12-18T01:22:22;100487.7;;;-10.73;100.0
64025;BME280;50266;57.446;26.936;2022-12-18T01:23:22;100486.25;;;-10.74;100.0
64025;BME280;50266;57.446;26.936;2022-12-18T01:24:22;100484.17;;;-10.68;100.0
64025;BME280;50266;57.446;26.936;2022-12-18T01:25:22;100485.65;;;-10.67;100.0
64025;BME280;50266;57.446;26.936;2022-12-18T01:26:22;100487.39;;;-10.64;100.0
64025;BME280;50266;57.446;26.936;2022-12-18T01:27:22;100482.93;;;-10.66;100.0
64025;BME280;50266;57.446;26.936;2022-12-18T01:28:22;100488.91;;;-10.63;100.0
64025;BME280;50266;57.446;26.936;2022-12-18T01:29:22;100489.78;;;-10.63;100.0
64025;BME280;50266;57.446;26.936;2022-12-18T01:30:22;100490.63;;;-10.66;100.0
64025;BME280;50266;57.446;26.936;2022-12-18T01:31:24;100494.72;;;-10.7;100.0
64025;BME280;50266;57.446;26.936;2022-12-18T01:32:22;100494.49;;;-10.73;100.0
64025;BME280;50266;57.446;26.936;2022-12-18T01:33:22;100490.45;;;-10.74;100.0
64025;BME280;50266;57.446;26.936;2022-12-18T01:34:22;100498.02;;;-10.73;100.0
64025;BME280;50266;57.446;26.936;2022-12-18T01:35:22;100502.14;;;-10.74;100.0
64025;BME280;50266;57.446;26.936;2022-12-18T01:36:23;100499.62;;;-10.78;100.0
64025;BME280;50266;57.446;26.936;2022-12-18T01:37:22;100500.8;;;-10.78;100.0
64025;BME280;50266;57.446;26.936;2022-12-18T01:38:22;100502.77;;;-10.73;100.0
64025;BME280;50266;57.446;26.936;2022-12-18T01:39:22;100503.28;;;-10.86;100.0
64025;BME280;50266;57.446;26.936;2022-12-18T01:40:22;100504.43;;;-10.85;100.0
64025;BME280;50266;57.446;26.936;2022-12-18T01:41:23;100504.12;;;-10.86;100.0
64025;BME280;50266;57.446;26.936;2022-12-18T01:42:22;100500.47;;;-10.83;100.0
64025;BME280;50266;57.446;26.936;2022-12-18T01:43:39;100501.34;;;-10.87;100.0
64025;BME280;50266;57.446;26.936;2022-12-18T01:45:28;100500.95;;;-10.88;100.0
64025;BME280;50266;57.446;26.936;2022-12-18T01:46:27;100506.08;;;-10.88;100.0
64025;BME280;50266;57.446;26.936;2022-12-18T01:47:37;100500.75;;;-10.93;100.0
64025;BME280;50266;57.446;26.936;2022-12-18T01:48:29;100501.62;;;-10.92;100.0
64025;BME280;50266;57.446;26.936;2022-12-18T01:49:29;100501.64;;;-10.91;100.0
64025;BME280;50266;57.446;26.936;2022-12-18T01:50:34;100500.17;;;-10.87;100.0
64025;BME280;50266;57.446;26.936;2022-12-18T01:51:32;100498.09;;;-10.87;100.0
64025;BME280;50266;57.446;26.936;2022-12-18T01:52:32;100499.98;;;-10.92;100.0
64025;BME280;50266;57.446;26.936;2022-12-18T01:53:32;100496.38;;;-10.97;100.0
64025;BME280;50266;57.446;26.936;2022-12-18T01:54:32;100501.33;;;-10.99;100.0
64025;BME280;50266;57.446;26.936;2022-12-18T01:55:35;100497.65;;;-10.95;100.0
64025;BME280;50266;57.446;26.936;2022-12-18T01:56:34;100494.62;;;-10.88;100.0
64025;BME280;50266;57.446;26.936;2022-12-18T01:57:34;100491.77;;;-10.96;100.0
64025;BME280;50266;57.446;26.936;2022-12-18T01:59:36;100496.31;;;-10.96;100.0
64025;BME280;50266;57.446;26.936;2022-12-18T02:00:36;100499.25;;;-10.99;100.0
64025;BME280;50266;57.446;26.936;2022-12-18T02:01:36;100497.74;;;-11.03;100.0
64025;BME280;50266;57.446;26.936;2022-12-18T02:02:36;100496.53;;;-11.03;100.0
64025;BME280;50266;57.446;26.936;2022-12-18T02:03:36;100501.66;;;-11.07;100.0
64025;BME280;50266;57.446;26.936;2022-12-18T02:04:36;100496.61;;;-11.08;100.0
64025;BME280;50266;57.446;26.936;2022-12-18T02:06:39;100498.82;;;-11.06;100.0
64025;BME280;50266;57.446;26.936;2022-12-18T02:09:46;100500.98;;;-10.97;100.0
64025;BME280;50266;57.446;26.936;2022-12-18T02:10:49;100500.83;;;-11.01;100.0
64025;BME280;50266;57.446;26.936;2022-12-18T02:13:12;100504.2;;;-11.06;100.0
64025;BME280;50266;57.446;26.936;2022-12-18T02:15:00;100501.71;;;-11.08;100.0
64025;BME280;50266;57.446;26.936;2022-12-18T02:18:05;100495.9;;;-11.11;100.0
64025;BME280;50266;57.446;26.936;2022-12-18T02:21:20;100499.24;;;-11.15;100.0
64025;BME280;50266;57.446;26.936;2022-12-18T02:22:18;100497.7;;;-11.11;100.0
64025;BME280;50266;57.446;26.936;2022-12-18T02:27:24;100509.46;;;-11.14;100.0
64025;BME280;50266;57.446;26.936;2022-12-18T02:28:25;100503.39;;;-11.14;100.0
64025;BME280;50266;57.446;26.936;2022-12-18T02:29:25;100505.58;;;-11.23;100.0
64025;BME280;50266;57.446;26.936;2022-12-18T02:30:24;100510.48;;;-11.26;100.0
64025;BME280;50266;57.446;26.936;2022-12-18T02:31:25;100509.08;;;-11.32;100.0
64025;BME280;50266;57.446;26.936;2022-12-18T02:32:28;100512.09;;;-11.33;100.0
64025;BME280;50266;57.446;26.936;2022-12-18T02:33:27;100511.7;;;-11.34;100.0
64025;BME280;50266;57.446;26.936;2022-12-18T02:34:27;100508.99;;;-11.37;100.0
64025;BME280;50266;57.446;26.936;2022-12-18T02:35:27;100510.78;;;-11.37;100.0
64025;BME280;50266;57.446;26.936;2022-12-18T02:36:26;100511.19;;;-11.39;100.0
64025;BME280;50266;57.446;26.936;2022-12-18T02:37:26;100512.12;;;-11.38;100.0
64025;BME280;50266;57.446;26.936;2022-12-18T02:38:26;100511.16;;;-11.34;100.0
64025;BME280;50266;57.446;26.936;2022-12-18T02:39:26;100512.8;;;-11.34;100.0
64025;BME280;50266;57.446;26.936;2022-12-18T02:40:26;100515.3;;;-11.36;100.0
64025;BME280;50266;57.446;26.936;2022-12-18T02:41:26;100519.46;;;-11.44;100.0
64025;BME280;50266;57.446;26.936;2022-12-18T02:42:26;100520.22;;;-11.47;100.0
64025;BME280;50266;57.446;26.936;2022-12-18T02:43:26;100516.05;;;-11.47;100.0
64025;BME280;50266;57.446;26.936;2022-12-18T02:44:26;100517.23;;;-11.48;100.0
64025;BME280;50266;57.446;26.936;2022-12-18T02:45:26;100522.16;;;-11.49;100.0
64025;BME280;50266;57.446;26.936;2022-12-18T02:46:33;100521.36;;;-11.49;100.0
64025;BME280;50266;57.446;26.936;2022-12-18T02:47:31;100523.86;;;-11.43;100.0
64025;BME280;50266;57.446;26.936;2022-12-18T02:48:31;100524.44;;;-11.48;100.0
64025;BME280;50266;57.446;26.936;2022-12-18T02:50:35;100522.72;;;-11.48;100.0
64025;BME280;50266;57.446;26.936;2022-12-18T02:52:39;100523.38;;;-11.52;100.0
64025;BME280;50266;57.446;26.936;2022-12-18T02:53:43;100524.12;;;-11.57;100.0
64025;BME280;50266;57.446;26.936;2022-12-18T02:54:50;100520.89;;;-11.55;100.0
64025;BME280;50266;57.446;26.936;2022-12-18T02:55:52;100525.5;;;-11.55;100.0
64025;BME280;50266;57.446;26.936;2022-12-18T02:56:46;100529.72;;;-11.53;100.0
64025;BME280;50266;57.446;26.936;2022-12-18T02:57:53;100529.55;;;-11.58;100.0
64025;BME280;50266;57.446;26.936;2022-12-18T02:58:58;100523.55;;;-11.57;100.0
64025;BME280;50266;57.446;26.936;2022-12-18T02:59:53;100525.16;;;-11.47;100.0
64025;BME280;50266;57.446;26.936;2022-12-18T03:00:49;100529.41;;;-11.56;100.0
64025;BME280;50266;57.446;26.936;2022-12-18T03:03:02;100528.69;;;-11.59;100.0
64025;BME280;50266;57.446;26.936;2022-12-18T03:03:54;100533.38;;;-11.54;100.0
64025;BME280;50266;57.446;26.936;2022-12-18T03:05:02;100529.48;;;-11.57;100.0
64025;BME280;50266;57.446;26.936;2022-12-18T03:05:57;100531.81;;;-11.57;100.0
64025;BME280;50266;57.446;26.936;2022-12-18T03:07:00;100528.8;;;-11.56;100.0
64025;BME280;50266;57.446;26.936;2022-12-18T03:08:02;100523.94;;;-11.62;100.0
64025;BME280;50266;57.446;26.936;2022-12-18T03:09:01;100525.45;;;-11.57;100.0
64025;BME280;50266;57.446;26.936;2022-12-18T03:10:00;100526.21;;;-11.54;100.0
64025;BME280;50266;57.446;26.936;2022-12-18T03:11:04;100525.02;;;-11.62;100.0
64025;BME280;50266;57.446;26.936;2022-12-18T03:12:07;100523.7;;;-11.61;100.0
64025;BME280;50266;57.446;26.936;2022-12-18T03:13:07;100521.69;;;-11.64;100.0
64025;BME280;50266;57.446;26.936;2022-12-18T03:14:06;100527.11;;;-11.59;100.0
64025;BME280;50266;57.446;26.936;2022-12-18T03:15:10;100527.33;;;-11.67;100.0
64025;BME280;50266;57.446;26.936;2022-12-18T03:16:09;100523.25;;;-11.71;100.0
64025;BME280;50266;57.446;26.936;2022-12-18T03:17:17;100525.99;;;-11.69;100.0
64025;BME280;50266;57.446;26.936;2022-12-18T03:18:10;100526.38;;;-11.7;100.0
64025;BME280;50266;57.446;26.936;2022-12-18T03:19:11;100524.63;;;-11.72;100.0
64025;BME280;50266;57.446;26.936;2022-12-18T03:20:12;100527.7;;;-11.74;100.0
64025;BME280;50266;57.446;26.936;2022-12-18T03:21:10;100524.36;;;-11.76;100.0
64025;BME280;50266;57.446;26.936;2022-12-18T03:22:10;100516.38;;;-11.72;100.0
64025;BME280;50266;57.446;26.936;2022-12-18T03:23:11;100520.98;;;-11.62;100.0
64025;BME280;50266;57.446;26.936;2022-12-18T03:24:10;100516.45;;;-11.75;100.0
64025;BME280;50266;57.446;26.936;2022-12-18T03:25:11;100518.84;;;-11.77;100.0
64025;BME280;50266;57.446;26.936;2022-12-18T03:26:11;100521.15;;;-11.83;100.0
64025;BME280;50266;57.446;26.936;2022-12-18T03:27:11;100522.88;;;-11.87;100.0
64025;BME280;50266;57.446;26.936;2022-12-18T03:28:12;100520.8;;;-11.94;100.0
64025;BME280;50266;57.446;26.936;2022-12-18T03:29:17;100530.14;;;-11.95;100.0
64025;BME280;50266;57.446;26.936;2022-12-18T03:30:12;100529.91;;;-11.95;100.0
64025;BME280;50266;57.446;26.936;2022-12-18T03:31:11;100531.33;;;-11.94;100.0
64025;BME280;50266;57.446;26.936;2022-12-18T03:32:11;100535.05;;;-11.93;100.0
64025;BME280;50266;57.446;26.936;2022-12-18T03:33:18;100533.81;;;-11.94;100.0
64025;BME280;50266;57.446;26.936;2022-12-18T03:34:14;100532.78;;;-11.88;100.0
64025;BME280;50266;57.446;26.936;2022-12-18T03:35:13;100537.7;;;-11.91;100.0
64025;BME280;50266;57.446;26.936;2022-12-18T03:36:13;100533.61;;;-11.93;100.0
64025;BME280;50266;57.446;26.936;2022-12-18T03:37:13;100537.28;;;-11.92;100.0
64025;BME280;50266;57.446;26.936;2022-12-18T03:38:13;100534.98;;;-11.98;100.0
64025;BME280;50266;57.446;26.936;2022-12-18T03:39:13;100531.5;;;-11.98;100.0
64025;BME280;50266;57.446;26.936;2022-12-18T03:40:13;100532.34;;;-11.94;100.0
64025;BME280;50266;57.446;26.936;2022-12-18T03:41:17;100533.5;;;-11.99;100.0
64025;BME280;50266;57.446;26.936;2022-12-18T03:42:19;100535.63;;;-12.03;100.0
64025;BME280;50266;57.446;26.936;2022-12-18T03:43:25;100539.41;;;-12.08;100.0
64025;BME280;50266;57.446;26.936;2022-12-18T03:44:30;100539.27;;;-12.1;100.0
64025;BME280;50266;57.446;26.936;2022-12-18T03:45:34;100539.58;;;-12.05;100.0
64025;BME280;50266;57.446;26.936;2022-12-18T03:46:38;100538.99;;;-12.14;100.0
64025;BME280;50266;57.446;26.936;2022-12-18T03:47:42;100538.59;;;-12.21;100.0
64025;BME280;50266;57.446;26.936;2022-12-18T03:48:32;100539.37;;;-12.23;100.0
64025;BME280;50266;57.446;26.936;2022-12-18T03:49:37;100542.78;;;-12.24;100.0
64025;BME280;50266;57.446;26.936;2022-12-18T03:50:45;100538.65;;;-12.19;100.0
64025;BME280;50266;57.446;26.936;2022-12-18T03:51:42;100539.26;;;-12.2;100.0
64025;BME280;50266;57.446;26.936;2022-12-18T03:52:52;100541.88;;;-12.26;100.0
64025;BME280;50266;57.446;26.936;2022-12-18T03:54:50;100546.54;;;-12.28;100.0
64025;BME280;50266;57.446;26.936;2022-12-18T03:55:50;100545.69;;;-12.31;100.0
64025;BME280;50266;57.446;26.936;2022-12-18T03:56:52;100544.52;;;-12.3;100.0
64025;BME280;50266;57.446;26.936;2022-12-18T03:57:51;100546.16;;;-12.3;100.0
64025;BME280;50266;57.446;26.936;2022-12-18T03:58:52;100548.58;;;-12.31;100.0
64025;BME280;50266;57.446;26.936;2022-12-18T03:59:54;100546.09;;;-12.35;100.0
64025;BME280;50266;57.446;26.936;2022-12-18T04:00:52;100544.02;;;-12.37;100.0
64025;BME280;50266;57.446;26.936;2022-12-18T04:01:52;100541.92;;;-12.35;100.0
64025;BME280;50266;57.446;26.936;2022-12-18T04:02:52;100535.73;;;-12.36;100.0
64025;BME280;50266;57.446;26.936;2022-12-18T04:03:52;100537.17;;;-12.36;100.0
64025;BME280;50266;57.446;26.936;2022-12-18T04:04:52;100540.64;;;-12.39;100.0
64025;BME280;50266;57.446;26.936;2022-12-18T04:05:52;100544.77;;;-12.38;100.0
64025;BME280;50266;57.446;26.936;2022-12-18T04:06:52;100546.8;;;-12.42;100.0
64025;BME280;50266;57.446;26.936;2022-12-18T04:07:52;100547.31;;;-12.51;100.0
64025;BME280;50266;57.446;26.936;2022-12-18T04:08:52;100547.39;;;-12.55;100.0
64025;BME280;50266;57.446;26.936;2022-12-18T04:09:53;100539.62;;;-12.58;100.0
64025;BME280;50266;57.446;26.936;2022-12-18T04:10:52;100545.11;;;-12.56;100.0
64025;BME280;50266;57.446;26.936;2022-12-18T04:11:52;100547.72;;;-12.56;100.0
64025;BME280;50266;57.446;26.936;2022-12-18T04:12:55;100547.92;;;-12.61;100.0
64025;BME280;50266;57.446;26.936;2022-12-18T04:13:55;100549.59;;;-12.64;100.0
64025;BME280;50266;57.446;26.936;2022-12-18T04:14:52;100550.05;;;-12.67;100.0
64025;BME280;50266;57.446;26.936;2022-12-18T04:15:52;100547.75;;;-12.69;100.0
64025;BME280;50266;57.446;26.936;2022-12-18T04:16:52;100552.45;;;-12.72;100.0
64025;BME280;50266;57.446;26.936;2022-12-18T04:17:52;100552.36;;;-12.76;100.0
64025;BME280;50266;57.446;26.936;2022-12-18T04:18:52;100546.73;;;-12.81;100.0
64025;BME280;50266;57.446;26.936;2022-12-18T04:19:52;100551.23;;;-12.85;100.0
64025;BME280;50266;57.446;26.936;2022-12-18T04:20:52;100553.41;;;-12.87;100.0
64025;BME280;50266;57.446;26.936;2022-12-18T04:21:52;100552.33;;;-12.94;100.0
64025;BME280;50266;57.446;26.936;2022-12-18T04:22:52;100553.2;;;-12.92;100.0
64025;BME280;50266;57.446;26.936;2022-12-18T04:23:52;100554.48;;;-12.87;100.0
64025;BME280;50266;57.446;26.936;2022-12-18T04:24:52;100556.29;;;-12.94;100.0
64025;BME280;50266;57.446;26.936;2022-12-18T04:25:52;100556.02;;;-13.0;100.0
64025;BME280;50266;57.446;26.936;2022-12-18T04:26:52;100556.7;;;-13.07;100.0
64025;BME280;50266;57.446;26.936;2022-12-18T04:27:52;100553.72;;;-13.1;100.0
64025;BME280;50266;57.446;26.936;2022-12-18T04:28:52;100555.31;;;-13.16;100.0
64025;BME280;50266;57.446;26.936;2022-12-18T04:29:52;100558.38;;;-13.21;100.0
64025;BME280;50266;57.446;26.936;2022-12-18T04:30:52;100549.94;;;-13.27;100.0
64025;BME280;50266;57.446;26.936;2022-12-18T04:31:52;100554.16;;;-13.32;100.0
64025;BME280;50266;57.446;26.936;2022-12-18T04:32:52;100558.89;;;-13.35;100.0
64025;BME280;50266;57.446;26.936;2022-12-18T04:33:52;100561.88;;;-13.41;100.0
64025;BME280;50266;57.446;26.936;2022-12-18T04:34:52;100560.48;;;-13.49;100.0
64025;BME280;50266;57.446;26.936;2022-12-18T04:35:52;100558.1;;;-13.53;100.0
64025;BME280;50266;57.446;26.936;2022-12-18T04:36:52;100562.2;;;-13.57;100.0
64025;BME280;50266;57.446;26.936;2022-12-18T04:37:52;100563.65;;;-13.6;100.0
64025;BME280;50266;57.446;26.936;2022-12-18T04:38:52;100565.91;;;-13.67;100.0
64025;BME280;50266;57.446;26.936;2022-12-18T04:39:52;100567.95;;;-13.66;100.0
64025;BME280;50266;57.446;26.936;2022-12-18T04:40:52;100566.91;;;-13.68;100.0
64025;BME280;50266;57.446;26.936;2022-12-18T04:41:52;100570.36;;;-13.7;100.0
64025;BME280;50266;57.446;26.936;2022-12-18T04:42:52;100565.42;;;-13.76;100.0
64025;BME280;50266;57.446;26.936;2022-12-18T04:43:52;100571.34;;;-13.77;100.0
64025;BME280;50266;57.446;26.936;2022-12-18T04:44:52;100573.45;;;-13.86;100.0
64025;BME280;50266;57.446;26.936;2022-12-18T04:45:52;100575.66;;;-13.92;100.0
64025;BME280;50266;57.446;26.936;2022-12-18T04:46:52;100579.03;;;-13.98;100.0
64025;BME280;50266;57.446;26.936;2022-12-18T04:47:52;100580.64;;;-13.89;100.0
64025;BME280;50266;57.446;26.936;2022-12-18T04:48:52;100583.27;;;-14.01;100.0
64025;BME280;50266;57.446;26.936;2022-12-18T04:49:52;100590.27;;;-14.06;100.0
64025;BME280;50266;57.446;26.936;2022-12-18T04:50:52;100588.02;;;-14.01;100.0
64025;BME280;50266;57.446;26.936;2022-12-18T04:51:53;100591.48;;;-13.98;100.0
64025;BME280;50266;57.446;26.936;2022-12-18T04:52:53;100588.53;;;-14.02;100.0
64025;BME280;50266;57.446;26.936;2022-12-18T04:53:53;100590.43;;;-14.1;100.0
64025;BME280;50266;57.446;26.936;2022-12-18T04:54:53;100589.55;;;-14.14;100.0
64025;BME280;50266;57.446;26.936;2022-12-18T04:56:54;100594.47;;;-14.21;100.0
64025;BME280;50266;57.446;26.936;2022-12-18T04:57:54;100592.2;;;-14.27;100.0
64025;BME280;50266;57.446;26.936;2022-12-18T04:58:54;100591.17;;;-14.35;100.0
64025;BME280;50266;57.446;26.936;2022-12-18T04:59:54;100590.17;;;-14.39;100.0
64025;BME280;50266;57.446;26.936;2022-12-18T05:00:54;100590.89;;;-14.4;100.0
64025;BME280;50266;57.446;26.936;2022-12-18T05:01:54;100594.25;;;-14.43;100.0
64025;BME280;50266;57.446;26.936;2022-12-18T05:02:54;100597.41;;;-14.45;100.0
64025;BME280;50266;57.446;26.936;2022-12-18T05:03:54;100597.95;;;-14.43;100.0
64025;BME280;50266;57.446;26.936;2022-12-18T05:04:54;100595.92;;;-14.45;100.0
64025;BME280;50266;57.446;26.936;2022-12-18T05:05:54;100596.6;;;-14.45;100.0
64025;BME280;50266;57.446;26.936;2022-12-18T05:06:54;100596.64;;;-14.5;100.0
64025;BME280;50266;57.446;26.936;2022-12-18T05:07:54;100594.81;;;-14.55;100.0
64025;BME280;50266;57.446;26.936;2022-12-18T05:08:54;100595.69;;;-14.53;100.0
64025;BME280;50266;57.446;26.936;2022-12-18T05:09:54;100598.48;;;-14.5;100.0
64025;BME280;50266;57.446;26.936;2022-12-18T05:11:01;100595.89;;;-14.52;100.0
64025;BME280;50266;57.446;26.936;2022-12-18T05:11:58;100600.88;;;-14.5;100.0
64025;BME280;50266;57.446;26.936;2022-12-18T05:12:58;100598.16;;;-14.52;100.0
64025;BME280;50266;57.446;26.936;2022-12-18T05:13:58;100600.63;;;-14.49;100.0
64025;BME280;50266;57.446;26.936;2022-12-18T05:14:58;100598.88;;;-14.48;100.0
64025;BME280;50266;57.446;26.936;2022-12-18T05:15:58;100603.38;;;-14.48;100.0
64025;BME280;50266;57.446;26.936;2022-12-18T05:16:58;100603.98;;;-14.43;100.0
64025;BME280;50266;57.446;26.936;2022-12-18T05:17:58;100608.12;;;-14.43;100.0
64025;BME280;50266;57.446;26.936;2022-12-18T05:18:58;100606.89;;;-14.42;100.0
64025;BME280;50266;57.446;26.936;2022-12-18T05:19:58;100608.48;;;-14.37;100.0
64025;BME280;50266;57.446;26.936;2022-12-18T05:20:58;100606.65;;;-14.34;100.0
64025;BME280;50266;57.446;26.936;2022-12-18T05:21:58;100605.97;;;-14.34;100.0
64025;BME280;50266;57.446;26.936;2022-12-18T05:22:58;100603.83;;;-14.32;100.0
64025;BME280;50266;57.446;26.936;2022-12-18T05:23:58;100608.21;;;-14.33;100.0
64025;BME280;50266;57.446;26.936;2022-12-18T05:24:58;100610.08;;;-14.35;100.0
64025;BME280;50266;57.446;26.936;2022-12-18T05:25:59;100605.02;;;-14.35;100.0
64025;BME280;50266;57.446;26.936;2022-12-18T05:26:58;100609.41;;;-14.35;100.0
64025;BME280;50266;57.446;26.936;2022-12-18T05:27:58;100608.41;;;-14.37;100.0
64025;BME280;50266;57.446;26.936;2022-12-18T05:28:58;100605.58;;;-14.45;100.0